createdAt,value
2023-01-29T00:00:58.233Z,10.40
2023-01-29T00:01:58.224Z,10.40
2023-01-29T00:02:58.215Z,10.10
2023-01-29T00:03:58.202Z,10.90
2023-01-29T00:04:59.172Z,11.20
2023-01-29T00:05:58.173Z,10.40
2023-01-29T00:06:58.145Z,13.70
2023-01-29T00:07:58.133Z,10.90
2023-01-29T00:08:58.127Z,10.80
2023-01-29T00:09:58.105Z,11.10
2023-01-29T00:10:58.095Z,12.90
2023-01-29T00:11:58.071Z,11.00
2023-01-29T00:12:58.061Z,11.30
2023-01-29T00:13:58.049Z,11.10
2023-01-29T00:14:58.029Z,10.70
2023-01-29T00:15:58.036Z,11.70
2023-01-29T00:16:58.063Z,11.70
2023-01-29T00:17:57.986Z,12.50
2023-01-29T00:18:57.979Z,12.30
2023-01-29T00:19:57.964Z,11.40
2023-01-29T00:20:57.948Z,13.10
2023-01-29T00:21:57.947Z,11.90
2023-01-29T00:22:57.916Z,13.40
2023-01-29T00:23:57.962Z,13.20
2023-01-29T00:24:57.896Z,12.80
2023-01-29T00:25:57.874Z,12.90
2023-01-29T00:26:57.870Z,12.60
2023-01-29T00:27:57.847Z,12.90
2023-01-29T00:28:57.840Z,13.60
2023-01-29T00:29:57.821Z,11.80
2023-01-29T00:30:57.864Z,13.40
2023-01-29T00:31:57.938Z,15.70
2023-01-29T00:32:57.778Z,12.10
2023-01-29T00:33:57.766Z,13.50
2023-01-29T00:34:57.741Z,16.00
2023-01-29T00:35:57.736Z,14.10
2023-01-29T00:36:57.796Z,12.80
2023-01-29T00:37:57.700Z,15.80
2023-01-29T00:38:57.685Z,15.90
2023-01-29T00:39:57.670Z,14.40
2023-01-29T00:40:57.658Z,15.20
2023-01-29T00:41:57.651Z,15.10
2023-01-29T00:42:57.633Z,15.10
2023-01-29T00:43:57.613Z,17.90
2023-01-29T00:44:57.599Z,18.10
2023-01-29T00:45:57.587Z,16.50
2023-01-29T00:46:57.664Z,17.60
2023-01-29T00:47:57.561Z,16.70
2023-01-29T00:48:57.998Z,17.20
2023-01-29T00:49:57.527Z,17.20
2023-01-29T00:50:57.522Z,16.10
2023-01-29T00:51:57.550Z,16.60
2023-01-29T00:52:57.485Z,16.30
2023-01-29T00:53:57.481Z,18.10
2023-01-29T00:54:57.454Z,16.40
2023-01-29T00:55:57.436Z,16.40
2023-01-29T00:56:57.430Z,19.80
2023-01-29T00:57:57.410Z,19.60
2023-01-29T00:58:57.394Z,17.30
2023-01-29T00:59:57.401Z,18.20
2023-01-29T01:00:57.387Z,18.40
2023-01-29T01:01:57.400Z,17.80
2023-01-29T01:02:57.340Z,19.00
2023-01-29T01:03:57.322Z,18.20
2023-01-29T01:04:57.329Z,20.60
2023-01-29T01:05:57.296Z,20.00
2023-01-29T01:06:57.279Z,22.50
2023-01-29T01:07:57.264Z,20.00
2023-01-29T01:08:57.248Z,19.20
2023-01-29T01:09:57.238Z,18.90
2023-01-29T01:10:57.221Z,21.10
2023-01-29T01:11:57.210Z,18.80
2023-01-29T01:12:57.187Z,19.80
2023-01-29T01:13:57.179Z,20.20
2023-01-29T01:14:57.166Z,20.00
2023-01-29T01:15:57.181Z,20.60
2023-01-29T01:16:57.134Z,22.80
2023-01-29T01:17:57.142Z,23.10
2023-01-29T01:18:57.102Z,20.10
2023-01-29T01:19:57.090Z,20.40
2023-01-29T01:20:57.080Z,21.10
2023-01-29T01:21:57.067Z,22.20
2023-01-29T01:22:57.044Z,20.70
2023-01-29T01:23:57.056Z,21.90
2023-01-29T01:24:57.015Z,19.80
2023-01-29T01:25:57.003Z,20.90
2023-01-29T01:26:56.987Z,20.80
2023-01-29T01:27:56.971Z,21.90
2023-01-29T01:28:56.958Z,22.30
2023-01-29T01:29:56.943Z,20.90
2023-01-29T01:30:56.941Z,20.80
2023-01-29T01:31:56.947Z,21.30
2023-01-29T01:32:56.898Z,22.00
2023-01-29T01:33:56.886Z,21.70
2023-01-29T01:34:56.873Z,20.60
2023-01-29T01:35:56.861Z,21.10
2023-01-29T01:36:56.842Z,22.40
2023-01-29T01:37:56.827Z,21.10
2023-01-29T01:38:56.822Z,20.60
2023-01-29T01:39:56.802Z,21.80
2023-01-29T01:40:56.781Z,24.30
2023-01-29T01:41:56.771Z,21.00
2023-01-29T01:42:56.766Z,23.30
2023-01-29T01:43:56.747Z,22.10
2023-01-29T01:44:56.734Z,22.30
2023-01-29T01:45:56.762Z,22.00
2023-01-29T01:46:56.704Z,22.10
2023-01-29T01:47:56.683Z,21.10
2023-01-29T01:48:56.666Z,21.10
2023-01-29T01:49:56.654Z,21.30
2023-01-29T01:50:56.652Z,21.20
2023-01-29T01:51:56.626Z,22.10
2023-01-29T01:52:56.617Z,21.80
2023-01-29T01:53:56.600Z,21.80
2023-01-29T01:54:56.583Z,23.60
2023-01-29T01:55:56.567Z,22.50
2023-01-29T01:56:56.563Z,25.00
2023-01-29T01:57:56.542Z,22.40
2023-01-29T01:58:56.523Z,22.80
2023-01-29T01:59:56.506Z,23.10
2023-01-29T02:00:56.507Z,22.10
2023-01-29T02:01:56.482Z,24.30
2023-01-29T02:02:56.473Z,21.90
2023-01-29T02:03:56.448Z,23.90
2023-01-29T02:04:56.437Z,22.40
2023-01-29T02:05:56.427Z,23.10
2023-01-29T02:06:56.406Z,21.80
2023-01-29T02:07:56.391Z,25.20
2023-01-29T02:08:56.401Z,24.10
2023-01-29T02:09:56.369Z,25.10
2023-01-29T02:10:56.350Z,24.20
2023-01-29T02:11:56.335Z,23.10
2023-01-29T02:12:56.319Z,22.60
2023-01-29T02:13:56.309Z,22.30
2023-01-29T02:14:56.295Z,25.80
2023-01-29T02:15:56.291Z,23.90
2023-01-29T02:16:56.261Z,23.90
2023-01-29T02:17:56.251Z,24.50
2023-01-29T02:18:56.235Z,24.20
2023-01-29T02:19:56.236Z,24.30
2023-01-29T02:20:56.206Z,25.00
2023-01-29T02:21:56.196Z,25.30
2023-01-29T02:22:56.192Z,24.20
2023-01-29T02:23:56.221Z,25.50
2023-01-29T02:24:56.149Z,24.40
2023-01-29T02:25:56.142Z,23.30
2023-01-29T02:26:56.120Z,23.20
2023-01-29T02:27:56.105Z,24.40
2023-01-29T02:28:56.094Z,23.00
2023-01-29T02:29:56.079Z,26.60
2023-01-29T02:30:56.123Z,23.60
2023-01-29T02:31:56.066Z,22.90
2023-01-29T02:32:56.032Z,24.00
2023-01-29T02:33:56.021Z,24.00
2023-01-29T02:34:56.003Z,24.20
2023-01-29T02:35:55.997Z,24.40
2023-01-29T02:36:55.977Z,23.80
2023-01-29T02:37:55.961Z,24.70
2023-01-29T02:38:55.945Z,26.60
2023-01-29T02:39:55.929Z,25.30
2023-01-29T02:40:55.918Z,24.40
2023-01-29T02:41:55.905Z,23.00
2023-01-29T02:42:55.894Z,24.90
2023-01-29T02:43:55.877Z,24.20
2023-01-29T02:44:55.860Z,23.30
2023-01-29T02:45:55.921Z,23.80
2023-01-29T02:46:55.840Z,24.40
2023-01-29T02:47:55.822Z,25.40
2023-01-29T02:48:55.803Z,25.40
2023-01-29T02:49:55.928Z,24.00
2023-01-29T02:50:55.773Z,24.20
2023-01-29T02:51:55.776Z,26.60
2023-01-29T02:52:55.760Z,24.60
2023-01-29T02:53:55.769Z,23.10
2023-01-29T02:54:55.721Z,23.70
2023-01-29T02:55:55.705Z,24.50
2023-01-29T02:56:55.695Z,24.80
2023-01-29T02:57:55.677Z,25.90
2023-01-29T02:58:55.654Z,26.20
2023-01-29T02:59:55.652Z,24.90
2023-01-29T03:00:55.655Z,24.00
2023-01-29T03:01:55.647Z,25.40
2023-01-29T03:02:55.598Z,25.40
2023-01-29T03:03:55.589Z,26.60
2023-01-29T03:04:55.576Z,26.40
2023-01-29T03:05:55.565Z,25.70
2023-01-29T03:06:55.549Z,28.50
2023-01-29T03:07:55.540Z,26.80
2023-01-29T03:08:55.516Z,25.60
2023-01-29T03:09:55.508Z,25.70
2023-01-29T03:10:55.488Z,26.40
2023-01-29T03:11:55.471Z,27.60
2023-01-29T03:12:55.468Z,24.90
2023-01-29T03:13:55.449Z,24.50
2023-01-29T03:14:55.431Z,27.40
2023-01-29T03:15:55.416Z,26.80
2023-01-29T03:16:55.404Z,26.40
2023-01-29T03:17:55.395Z,28.10
2023-01-29T03:18:55.374Z,24.80
2023-01-29T03:19:55.356Z,24.80
2023-01-29T03:20:55.343Z,25.50
2023-01-29T03:21:55.382Z,24.60
2023-01-29T03:22:55.315Z,25.90
2023-01-29T03:23:55.348Z,25.30
2023-01-29T03:24:55.288Z,27.10
2023-01-29T03:25:55.271Z,25.60
2023-01-29T03:26:55.260Z,26.10
2023-01-29T03:27:55.243Z,25.90
2023-01-29T03:28:55.234Z,23.90
2023-01-29T03:29:55.218Z,25.70
2023-01-29T03:30:55.227Z,25.00
2023-01-29T03:31:55.236Z,27.70
2023-01-29T03:32:55.175Z,25.50
2023-01-29T03:33:55.165Z,26.30
2023-01-29T03:34:55.150Z,27.40
2023-01-29T03:35:55.136Z,26.40
2023-01-29T03:36:55.121Z,25.20
2023-01-29T03:37:55.108Z,25.90
2023-01-29T03:38:55.090Z,27.10
2023-01-29T03:39:55.075Z,24.70
2023-01-29T03:40:55.059Z,25.60
2023-01-29T03:41:55.044Z,25.70
2023-01-29T03:42:55.043Z,26.70
2023-01-29T03:43:55.015Z,24.00
2023-01-29T03:44:55.003Z,25.00
2023-01-29T03:45:55.144Z,26.60
2023-01-29T03:46:54.974Z,26.40
2023-01-29T03:47:54.964Z,24.90
2023-01-29T03:48:54.954Z,29.10
2023-01-29T03:49:54.952Z,28.50
2023-01-29T03:50:54.919Z,31.30
2023-01-29T03:51:54.899Z,27.80
2023-01-29T03:52:54.888Z,28.30
2023-01-29T03:53:54.876Z,30.80
2023-01-29T03:54:54.871Z,28.90
2023-01-29T03:55:54.847Z,33.30
2023-01-29T03:56:54.839Z,31.50
2023-01-29T03:57:54.827Z,32.90
2023-01-29T03:58:54.804Z,32.70
2023-01-29T03:59:54.796Z,32.50
2023-01-29T04:00:54.780Z,34.10
2023-01-29T04:01:54.761Z,32.00
2023-01-29T04:02:54.751Z,32.60
2023-01-29T04:03:54.753Z,34.20
2023-01-29T04:04:54.721Z,33.60
2023-01-29T04:05:54.766Z,34.40
2023-01-29T04:06:54.689Z,33.50
2023-01-29T04:07:54.675Z,34.60
2023-01-29T04:08:54.665Z,36.20
2023-01-29T04:09:54.650Z,34.70
2023-01-29T04:10:54.632Z,35.40
2023-01-29T04:11:54.617Z,36.40
2023-01-29T04:12:54.601Z,35.70
2023-01-29T04:13:54.585Z,37.10
2023-01-29T04:14:54.576Z,36.20
2023-01-29T04:15:54.567Z,37.40
2023-01-29T04:16:54.548Z,38.80
2023-01-29T04:17:54.536Z,38.10
2023-01-29T04:18:54.519Z,41.50
2023-01-29T04:19:54.504Z,41.10
2023-01-29T04:20:54.500Z,41.50
2023-01-29T04:21:54.475Z,41.80
2023-01-29T04:22:54.459Z,42.30
2023-01-29T04:23:54.579Z,42.10
2023-01-29T04:24:54.432Z,41.10
2023-01-29T04:25:54.413Z,42.50
2023-01-29T04:26:54.401Z,40.60
2023-01-29T04:27:54.388Z,41.30
2023-01-29T04:28:54.380Z,41.40
2023-01-29T04:29:54.357Z,40.20
2023-01-29T04:30:54.481Z,44.10
2023-01-29T04:31:54.365Z,47.00
2023-01-29T04:32:54.314Z,48.30
2023-01-29T04:33:54.296Z,49.10
2023-01-29T04:34:54.287Z,52.20
2023-01-29T04:35:54.275Z,52.70
2023-01-29T04:36:54.268Z,54.60
2023-01-29T04:37:54.247Z,54.70
2023-01-29T04:38:54.224Z,58.30
2023-01-29T04:39:54.210Z,57.80
2023-01-29T04:40:54.223Z,62.40
2023-01-29T04:41:54.184Z,57.90
2023-01-29T04:42:54.172Z,60.90
2023-01-29T04:43:54.154Z,60.50
2023-01-29T04:44:54.142Z,61.00
2023-01-29T04:45:54.157Z,58.60
2023-01-29T04:46:54.128Z,57.80
2023-01-29T04:47:54.102Z,60.90
2023-01-29T04:48:54.086Z,61.20
2023-01-29T04:49:54.065Z,61.70
2023-01-29T04:50:54.055Z,60.90
2023-01-29T04:51:54.046Z,62.90
2023-01-29T04:52:54.027Z,59.50
2023-01-29T04:53:54.009Z,64.30
2023-01-29T04:54:54.001Z,63.30
2023-01-29T04:55:53.987Z,61.30
2023-01-29T04:56:53.966Z,62.70
2023-01-29T04:57:53.953Z,63.40
2023-01-29T04:58:53.942Z,61.00
2023-01-29T04:59:53.921Z,58.90
2023-01-29T05:00:53.910Z,61.50
2023-01-29T05:01:53.950Z,61.50
2023-01-29T05:02:53.979Z,59.70
2023-01-29T05:03:53.873Z,59.30
2023-01-29T05:04:53.854Z,58.90
2023-01-29T05:05:53.844Z,59.60
2023-01-29T05:06:53.833Z,58.60
2023-01-29T05:07:53.810Z,59.50
2023-01-29T05:08:53.795Z,58.10
2023-01-29T05:09:53.779Z,59.50
2023-01-29T05:10:53.775Z,56.80
2023-01-29T05:11:53.759Z,60.30
2023-01-29T05:12:53.741Z,63.00
2023-01-29T05:13:53.728Z,60.70
2023-01-29T05:14:53.715Z,58.50
2023-01-29T05:15:53.774Z,59.20
2023-01-29T05:16:53.685Z,57.20
2023-01-29T05:17:53.675Z,58.90
2023-01-29T05:18:53.652Z,59.00
2023-01-29T05:19:53.638Z,56.70
2023-01-29T05:20:53.624Z,56.70
2023-01-29T05:21:53.617Z,53.20
2023-01-29T05:22:53.592Z,57.90
2023-01-29T05:23:53.589Z,56.40
2023-01-29T05:24:53.562Z,56.80
2023-01-29T05:25:53.552Z,53.50
2023-01-29T05:26:53.545Z,56.90
2023-01-29T05:27:53.531Z,55.30
2023-01-29T05:28:55.991Z,55.10
2023-01-29T05:29:53.502Z,54.20
2023-01-29T05:30:53.510Z,55.70
2023-01-29T05:31:53.507Z,54.70
2023-01-29T05:32:53.451Z,49.60
2023-01-29T05:33:53.436Z,52.60
2023-01-29T05:34:53.422Z,53.20
2023-01-29T05:35:53.414Z,52.10
2023-01-29T05:36:53.393Z,53.50
2023-01-29T05:37:53.381Z,51.80
2023-01-29T05:38:53.361Z,49.10
2023-01-29T05:39:53.352Z,48.10
2023-01-29T05:40:53.338Z,48.30
2023-01-29T05:41:53.326Z,49.50
2023-01-29T05:42:53.444Z,47.40
2023-01-29T05:43:53.299Z,50.30
2023-01-29T05:44:53.313Z,51.70
2023-01-29T05:45:53.266Z,51.50
2023-01-29T05:46:53.332Z,51.50
2023-01-29T05:47:53.245Z,53.20
2023-01-29T05:48:53.218Z,51.20
2023-01-29T05:49:53.208Z,51.90
2023-01-29T05:50:53.215Z,50.20
2023-01-29T05:51:53.179Z,49.70
2023-01-29T05:52:53.163Z,51.70
2023-01-29T05:53:53.153Z,49.60
2023-01-29T05:54:53.142Z,46.80
2023-01-29T05:55:53.124Z,49.10
2023-01-29T05:56:53.108Z,48.80
2023-01-29T05:57:53.093Z,51.30
2023-01-29T05:58:53.090Z,49.30
2023-01-29T05:59:53.066Z,49.20
2023-01-29T06:00:53.058Z,51.00
2023-01-29T06:01:53.077Z,51.20
2023-01-29T06:02:53.096Z,53.60
2023-01-29T06:03:53.011Z,53.20
2023-01-29T06:04:52.996Z,50.20
2023-01-29T06:05:52.988Z,51.40
2023-01-29T06:06:52.960Z,52.90
2023-01-29T06:07:52.968Z,51.80
2023-01-29T06:08:52.967Z,49.70
2023-01-29T06:09:52.923Z,51.30
2023-01-29T06:10:52.907Z,49.30
2023-01-29T06:11:52.922Z,51.50
2023-01-29T06:12:52.890Z,50.60
2023-01-29T06:13:52.880Z,53.50
2023-01-29T06:14:52.858Z,54.30
2023-01-29T06:15:52.900Z,52.10
2023-01-29T06:16:52.825Z,57.00
2023-01-29T06:17:52.816Z,52.20
2023-01-29T06:18:52.797Z,54.00
2023-01-29T06:19:52.778Z,55.00
2023-01-29T06:20:52.766Z,61.20
2023-01-29T06:21:52.749Z,58.90
2023-01-29T06:22:52.748Z,60.10
2023-01-29T06:23:52.734Z,61.40
2023-01-29T06:24:52.730Z,61.70
2023-01-29T06:25:52.701Z,61.70
2023-01-29T06:26:52.675Z,65.10
2023-01-29T06:27:52.665Z,63.40
2023-01-29T06:28:52.649Z,62.70
2023-01-29T06:29:52.636Z,61.70
2023-01-29T06:30:52.652Z,58.80
2023-01-29T06:31:52.715Z,62.30
2023-01-29T06:32:52.596Z,60.90
2023-01-29T06:33:52.583Z,63.10
2023-01-29T06:34:52.575Z,60.40
2023-01-29T06:35:52.555Z,61.80
2023-01-29T06:36:52.538Z,62.30
2023-01-29T06:37:52.523Z,62.00
2023-01-29T06:38:52.514Z,61.50
2023-01-29T06:39:52.502Z,64.40
2023-01-29T06:40:52.479Z,64.30
2023-01-29T06:41:52.496Z,64.20
2023-01-29T06:42:52.456Z,70.90
2023-01-29T06:43:52.451Z,65.60
2023-01-29T06:44:52.423Z,70.10
2023-01-29T06:45:52.462Z,69.00
2023-01-29T06:46:52.405Z,71.10
2023-01-29T06:47:52.380Z,67.70
2023-01-29T06:48:52.373Z,71.30
2023-01-29T06:49:52.350Z,66.70
2023-01-29T06:50:52.339Z,73.10
2023-01-29T06:51:52.324Z,69.20
2023-01-29T06:52:52.306Z,68.50
2023-01-29T06:53:52.299Z,65.20
2023-01-29T06:54:52.286Z,68.70
2023-01-29T06:55:52.289Z,66.10
2023-01-29T06:56:52.256Z,65.10
2023-01-29T06:57:52.242Z,67.10
2023-01-29T06:58:52.232Z,70.30
2023-01-29T06:59:52.215Z,67.00
2023-01-29T07:00:52.228Z,69.70
2023-01-29T07:01:52.203Z,68.70
2023-01-29T07:02:52.167Z,69.50
2023-01-29T07:03:52.170Z,70.70
2023-01-29T07:04:52.142Z,68.90
2023-01-29T07:05:52.132Z,76.50
2023-01-29T07:06:52.111Z,75.10
2023-01-29T07:07:52.101Z,70.40
2023-01-29T07:08:52.085Z,68.30
2023-01-29T07:09:52.066Z,67.40
2023-01-29T07:10:52.051Z,70.40
2023-01-29T07:11:52.040Z,65.90
2023-01-29T07:12:52.028Z,66.10
2023-01-29T07:13:52.009Z,64.50
2023-01-29T07:14:51.997Z,65.10
2023-01-29T07:15:51.981Z,65.10
2023-01-29T07:16:51.990Z,61.60
2023-01-29T07:17:51.963Z,67.20
2023-01-29T07:18:51.943Z,62.80
2023-01-29T07:19:51.938Z,60.60
2023-01-29T07:20:51.923Z,63.80
2023-01-29T07:21:51.906Z,60.40
2023-01-29T07:22:51.882Z,62.10
2023-01-29T07:23:51.869Z,61.80
2023-01-29T07:24:51.859Z,63.80
2023-01-29T07:25:51.863Z,65.30
2023-01-29T07:26:51.832Z,62.00
2023-01-29T07:27:51.817Z,65.40
2023-01-29T07:28:51.799Z,63.10
2023-01-29T07:29:51.785Z,59.40
2023-01-29T07:30:51.767Z,60.30
2023-01-29T07:31:51.831Z,60.00
2023-01-29T07:32:51.745Z,63.30
2023-01-29T07:33:51.729Z,65.00
2023-01-29T07:34:51.715Z,61.40
2023-01-29T07:35:51.699Z,61.70
2023-01-29T07:36:51.686Z,61.30
2023-01-29T07:37:51.674Z,62.00
2023-01-29T07:38:51.670Z,64.40
2023-01-29T07:39:51.643Z,61.80
2023-01-29T07:40:51.640Z,63.00
2023-01-29T07:41:51.627Z,63.90
2023-01-29T07:42:51.606Z,61.10
2023-01-29T07:43:51.589Z,62.70
2023-01-29T07:44:51.580Z,61.40
2023-01-29T07:45:51.632Z,63.20
2023-01-29T07:46:51.550Z,64.60
2023-01-29T07:47:51.533Z,64.80
2023-01-29T07:48:51.521Z,62.10
2023-01-29T07:49:51.505Z,65.10
2023-01-29T07:50:51.490Z,65.60
2023-01-29T07:51:51.473Z,68.20
2023-01-29T07:52:51.466Z,63.40
2023-01-29T07:53:51.450Z,67.20
2023-01-29T07:54:51.435Z,66.40
2023-01-29T07:55:51.419Z,65.00
2023-01-29T07:56:51.403Z,68.10
2023-01-29T07:57:51.428Z,64.90
2023-01-29T07:58:51.379Z,68.70
2023-01-29T07:59:51.365Z,68.60
2023-01-29T08:00:51.403Z,68.10
2023-01-29T08:01:51.362Z,69.40
2023-01-29T08:02:51.321Z,68.40
2023-01-29T08:03:51.546Z,67.70
2023-01-29T08:04:51.299Z,66.20
2023-01-29T08:05:51.289Z,70.10
2023-01-29T08:06:51.264Z,68.00
2023-01-29T08:08:04.466Z,67.70
2023-01-29T08:08:51.246Z,69.80
2023-01-29T08:09:51.222Z,68.80
2023-01-29T08:10:51.217Z,70.80
2023-01-29T08:11:51.193Z,71.80
2023-01-29T08:12:51.182Z,73.30
2023-01-29T08:13:51.174Z,73.90
2023-01-29T08:14:51.157Z,69.50
2023-01-29T08:15:51.139Z,70.80
2023-01-29T08:16:51.154Z,73.40
2023-01-29T08:17:57.748Z,68.40
2023-01-29T08:18:51.094Z,74.40
2023-01-29T08:19:51.085Z,71.30
2023-01-29T08:20:52.801Z,72.50
2023-01-29T08:21:51.059Z,69.60
2023-01-29T08:22:51.111Z,72.20
2023-01-29T08:23:51.029Z,68.80
2023-01-29T08:24:54.273Z,69.90
2023-01-29T08:25:51.048Z,69.00
2023-01-29T08:26:50.989Z,71.20
2023-01-29T08:27:51.034Z,66.50
2023-01-29T08:28:50.960Z,67.60
2023-01-29T08:29:50.941Z,66.60
2023-01-29T08:30:50.979Z,69.70
2023-01-29T08:31:50.925Z,68.70
2023-01-29T08:32:50.903Z,71.90
2023-01-29T08:33:50.896Z,71.90
2023-01-29T08:34:50.875Z,69.00
2023-01-29T08:35:50.873Z,70.00
2023-01-29T08:36:50.858Z,68.30
2023-01-29T08:37:50.831Z,68.10
2023-01-29T08:38:50.825Z,68.20
2023-01-29T08:39:50.806Z,65.60
2023-01-29T08:40:50.796Z,69.50
2023-01-29T08:41:50.786Z,74.60
2023-01-29T08:42:50.762Z,69.80
2023-01-29T08:43:50.745Z,68.20
2023-01-29T08:44:50.733Z,68.20
2023-01-29T08:45:50.733Z,69.60
2023-01-29T08:46:50.707Z,68.20
2023-01-29T08:47:50.691Z,69.00
2023-01-29T08:48:50.687Z,66.50
2023-01-29T08:49:50.663Z,63.80
2023-01-29T08:50:50.653Z,67.80
2023-01-29T08:51:50.660Z,68.80
2023-01-29T08:52:50.630Z,65.10
2023-01-29T08:53:51.435Z,68.50
2023-01-29T08:54:50.597Z,67.50
2023-01-29T08:55:50.589Z,67.40
2023-01-29T08:56:50.571Z,69.80
2023-01-29T08:57:50.554Z,65.20
2023-01-29T08:58:50.544Z,65.40
2023-01-29T08:59:50.525Z,68.20
2023-01-29T09:00:50.541Z,68.70
2023-01-29T09:01:50.500Z,65.80
2023-01-29T09:02:50.491Z,67.20
2023-01-29T09:03:50.474Z,66.90
2023-01-29T09:04:50.461Z,69.90
2023-01-29T09:05:50.451Z,67.10
2023-01-29T09:06:50.431Z,70.20
2023-01-29T09:07:52.107Z,63.70
2023-01-29T09:08:50.408Z,64.60
2023-01-29T09:09:50.394Z,64.50
2023-01-29T09:10:50.374Z,65.20
2023-01-29T09:11:50.360Z,67.00
2023-01-29T09:12:50.354Z,65.20
2023-01-29T09:13:50.331Z,64.10
2023-01-29T09:14:50.324Z,61.40
2023-01-29T09:15:50.321Z,61.60
2023-01-29T09:16:50.321Z,60.20
2023-01-29T09:17:50.278Z,62.10
2023-01-29T09:18:50.265Z,60.00
2023-01-29T09:19:50.252Z,58.40
2023-01-29T09:20:50.247Z,58.80
2023-01-29T09:21:50.222Z,58.30
2023-01-29T09:22:50.208Z,61.50
2023-01-29T09:23:50.194Z,59.40
2023-01-29T09:24:50.188Z,59.60
2023-01-29T09:25:50.183Z,56.20
2023-01-29T09:26:50.160Z,56.50
2023-01-29T09:27:50.150Z,56.60
2023-01-29T09:28:50.129Z,54.70
2023-01-29T09:29:50.113Z,55.30
2023-01-29T09:30:50.228Z,52.70
2023-01-29T09:31:50.216Z,53.00
2023-01-29T09:32:53.556Z,56.60
2023-01-29T09:33:50.093Z,54.80
2023-01-29T09:34:50.061Z,55.80
2023-01-29T09:35:50.092Z,55.80
2023-01-29T09:36:50.021Z,52.10
2023-01-29T09:37:50.017Z,55.40
2023-01-29T09:38:50.017Z,51.70
2023-01-29T09:39:49.979Z,53.60
2023-01-29T09:40:49.976Z,53.30
2023-01-29T09:41:49.953Z,55.10
2023-01-29T09:42:49.942Z,54.00
2023-01-29T09:43:49.926Z,48.50
2023-01-29T09:44:49.915Z,55.10
2023-01-29T09:45:49.910Z,50.60
2023-01-29T09:46:49.887Z,51.90
2023-01-29T09:47:49.883Z,49.50
2023-01-29T09:48:49.862Z,47.90
2023-01-29T09:49:49.846Z,48.40
2023-01-29T09:50:49.835Z,49.30
2023-01-29T09:51:49.835Z,48.70
2023-01-29T09:52:49.805Z,49.40
2023-01-29T09:53:49.791Z,46.20
2023-01-29T09:54:49.785Z,45.20
2023-01-29T09:55:49.767Z,45.00
2023-01-29T09:56:49.759Z,42.00
2023-01-29T09:57:49.740Z,45.60
2023-01-29T09:58:49.725Z,44.30
2023-01-29T09:59:49.710Z,42.30
2023-01-29T10:00:49.696Z,43.00
2023-01-29T10:01:49.720Z,40.20
2023-01-29T10:02:49.671Z,41.80
2023-01-29T10:03:49.656Z,43.20
2023-01-29T10:04:49.722Z,42.40
2023-01-29T10:05:49.633Z,40.30
2023-01-29T10:06:49.618Z,40.20
2023-01-29T10:07:49.612Z,43.10
2023-01-29T10:08:49.588Z,39.90
2023-01-29T10:09:49.575Z,39.60
2023-01-29T10:10:49.563Z,39.00
2023-01-29T10:11:49.546Z,40.50
2023-01-29T10:12:49.558Z,39.50
2023-01-29T10:13:49.529Z,37.00
2023-01-29T10:14:49.510Z,35.10
2023-01-29T10:15:49.535Z,40.20
2023-01-29T10:16:49.535Z,39.30
2023-01-29T10:17:50.448Z,36.00
2023-01-29T10:18:49.456Z,35.70
2023-01-29T10:19:49.451Z,34.70
2023-01-29T10:20:49.443Z,35.90
2023-01-29T10:21:49.429Z,34.40
2023-01-29T10:22:49.463Z,33.20
2023-01-29T10:23:49.412Z,34.60
2023-01-29T10:24:49.377Z,33.80
2023-01-29T10:25:49.374Z,33.30
2023-01-29T10:26:49.407Z,32.10
2023-01-29T10:27:49.342Z,35.00
2023-01-29T10:28:49.325Z,32.70
2023-01-29T10:29:49.317Z,34.00
2023-01-29T10:30:49.376Z,32.60
2023-01-29T10:31:49.467Z,33.20
2023-01-29T10:32:49.283Z,32.20
2023-01-29T10:34:01.504Z,31.30
2023-01-29T10:34:49.246Z,33.90
2023-01-29T10:35:49.241Z,34.80
2023-01-29T10:36:49.228Z,32.80
2023-01-29T10:37:49.209Z,31.80
2023-01-29T10:38:49.197Z,29.90
2023-01-29T10:39:49.192Z,32.00
2023-01-29T10:40:49.170Z,31.00
2023-01-29T10:41:49.157Z,29.40
2023-01-29T10:42:49.146Z,30.90
2023-01-29T10:43:49.131Z,30.50
2023-01-29T10:44:49.129Z,27.80
2023-01-29T10:45:49.117Z,31.40
2023-01-29T10:46:49.108Z,27.60
2023-01-29T10:47:49.291Z,30.00
2023-01-29T10:48:49.068Z,29.10
2023-01-29T10:49:49.067Z,28.30
2023-01-29T10:50:49.042Z,26.50
2023-01-29T10:51:49.041Z,26.70
2023-01-29T10:52:49.019Z,25.50
2023-01-29T10:53:49.021Z,26.80
2023-01-29T10:54:48.997Z,25.90
2023-01-29T10:55:48.987Z,26.40
2023-01-29T10:56:48.980Z,27.70
2023-01-29T10:57:48.967Z,25.80
2023-01-29T10:58:48.949Z,25.20
2023-01-29T10:59:48.936Z,25.80
2023-01-29T11:00:48.916Z,25.60
2023-01-29T11:01:48.933Z,25.30
2023-01-29T11:02:49.065Z,26.90
2023-01-29T11:03:48.881Z,26.20
2023-01-29T11:04:48.868Z,26.00
2023-01-29T11:05:48.858Z,26.40
2023-01-29T11:06:48.843Z,25.60
2023-01-29T11:07:48.831Z,25.40
2023-01-29T11:08:48.823Z,25.30
2023-01-29T11:09:48.808Z,25.60
2023-01-29T11:10:48.801Z,24.10
2023-01-29T11:11:48.784Z,25.00
2023-01-29T11:12:48.767Z,24.10
2023-01-29T11:13:48.790Z,26.60
2023-01-29T11:14:48.744Z,25.00
2023-01-29T11:15:48.747Z,24.40
2023-01-29T11:16:48.954Z,24.40
2023-01-29T11:17:48.718Z,24.40
2023-01-29T11:18:48.696Z,24.60
2023-01-29T11:19:48.680Z,25.00
2023-01-29T11:20:48.674Z,23.30
2023-01-29T11:21:48.664Z,24.10
2023-01-29T11:22:48.646Z,23.00
2023-01-29T11:23:48.637Z,23.30
2023-01-29T11:24:48.627Z,22.70
2023-01-29T11:25:48.613Z,24.20
2023-01-29T11:26:48.604Z,21.50
2023-01-29T11:27:48.592Z,23.70
2023-01-29T11:28:48.580Z,22.60
2023-01-29T11:29:48.565Z,22.40
2023-01-29T11:30:48.604Z,23.00
2023-01-29T11:31:48.565Z,22.60
2023-01-29T11:32:48.527Z,23.40
2023-01-29T11:33:48.511Z,22.50
2023-01-29T11:34:48.508Z,21.00
2023-01-29T11:35:48.494Z,21.60
2023-01-29T11:36:48.481Z,22.30
2023-01-29T11:37:48.469Z,21.00
2023-01-29T11:38:48.457Z,21.70
2023-01-29T11:39:48.452Z,21.00
2023-01-29T11:40:48.429Z,20.30
2023-01-29T11:41:48.433Z,22.80
2023-01-29T11:42:48.425Z,22.40
2023-01-29T11:43:48.391Z,22.40
2023-01-29T11:44:48.385Z,19.90
2023-01-29T11:45:48.365Z,20.90
2023-01-29T11:46:48.525Z,22.00
2023-01-29T11:47:48.360Z,21.20
2023-01-29T11:48:48.366Z,23.00
2023-01-29T11:49:48.323Z,22.00
2023-01-29T11:50:48.304Z,20.70
2023-01-29T11:51:48.294Z,21.20
2023-01-29T11:52:48.285Z,20.90
2023-01-29T11:53:48.286Z,20.70
2023-01-29T11:54:48.271Z,22.60
2023-01-29T11:55:50.766Z,22.10
2023-01-29T11:56:48.254Z,21.10
2023-01-29T11:57:48.223Z,20.90
2023-01-29T11:58:48.223Z,21.10
2023-01-29T11:59:48.198Z,20.90
2023-01-29T12:00:48.185Z,21.20
2023-01-29T12:01:48.172Z,20.10
2023-01-29T12:02:48.163Z,20.50
2023-01-29T12:03:48.157Z,20.30
2023-01-29T12:04:48.142Z,22.00
2023-01-29T12:05:48.159Z,20.90
2023-01-29T12:06:48.140Z,21.70
2023-01-29T12:07:48.101Z,21.10
2023-01-29T12:08:48.088Z,20.80
2023-01-29T12:09:48.073Z,20.70
2023-01-29T12:10:48.071Z,21.50
2023-01-29T12:11:48.074Z,22.00
2023-01-29T12:12:48.040Z,19.00
2023-01-29T12:13:48.029Z,20.10
2023-01-29T12:14:48.030Z,19.90
2023-01-29T12:15:48.113Z,20.60
2023-01-29T12:16:47.995Z,21.30
2023-01-29T12:17:47.981Z,19.10
2023-01-29T12:18:47.971Z,19.50
2023-01-29T12:19:47.993Z,21.00
2023-01-29T12:20:47.954Z,20.40
2023-01-29T12:21:47.953Z,22.20
2023-01-29T12:22:47.920Z,19.90
2023-01-29T12:23:47.912Z,20.00
2023-01-29T12:24:47.903Z,19.80
2023-01-29T12:25:47.884Z,19.30
2023-01-29T12:26:47.938Z,20.30
2023-01-29T12:27:47.865Z,20.40
2023-01-29T12:28:47.879Z,20.00
2023-01-29T12:29:48.089Z,21.40
2023-01-29T12:30:47.842Z,19.80
2023-01-29T12:31:47.849Z,20.50
2023-01-29T12:32:47.802Z,19.20
2023-01-29T12:33:47.791Z,21.00
2023-01-29T12:34:47.781Z,19.50
2023-01-29T12:35:47.772Z,18.50
2023-01-29T12:36:47.758Z,19.90
2023-01-29T12:37:47.742Z,22.10
2023-01-29T12:38:47.737Z,21.00
2023-01-29T12:39:47.722Z,21.00
2023-01-29T12:40:47.708Z,21.10
2023-01-29T12:41:47.694Z,20.50
2023-01-29T12:42:47.694Z,21.60
2023-01-29T12:43:47.693Z,21.00
2023-01-29T12:44:47.684Z,18.90
2023-01-29T12:45:47.647Z,21.50
2023-01-29T12:46:47.680Z,21.20
2023-01-29T12:47:47.624Z,20.70
2023-01-29T12:48:47.609Z,19.60
2023-01-29T12:49:47.598Z,21.90
2023-01-29T12:50:47.583Z,23.20
2023-01-29T12:51:47.576Z,20.50
2023-01-29T12:52:47.562Z,20.00